Time;durP1;ratioP1;P1;durP2;ratioP2;P2;SDS_P1;SDS_P2;PMS_P1;PMS_P2;Temp;Humidity;BMP_temperature;BMP_pressure;BME280_temperature;BME280_humidity;BME280_pressure;Samples;Min_cycle;Max_cycle;Signal;HPM_P1;HPM_P2
2020/12/24 00:00:20;;;;;;;17.20;14.17;;;7.30;99.90;;;;;;4942431;29;20455;-83
2020/12/24 00:02:47;;;;;;;14.83;13.33;;;7.30;99.90;;;;;;4943699;29;20468;-83
2020/12/24 00:05:15;;;;;;;15.40;13.07;;;7.20;99.90;;;;;;4943975;29;20473;-83
2020/12/24 00:07:43;;;;;;;16.43;14.00;;;7.20;99.90;;;;;;4964871;28;20906;-83
2020/12/24 00:10:11;;;;;;;18.77;15.70;;;7.20;99.90;;;;;;4943388;29;20500;-83
2020/12/24 00:12:39;;;;;;;21.73;17.40;;;7.10;99.90;;;;;;4942525;29;20453;-83
2020/12/24 00:15:08;;;;;;;22.87;18.17;;;7.10;99.90;;;;;;4942798;29;20665;-83
2020/12/24 00:17:36;;;;;;;23.50;19.10;;;7.10;99.90;;;;;;4942503;29;20473;-83
2020/12/24 00:20:04;;;;;;;21.33;16.40;;;7.10;99.90;;;;;;4925212;29;20508;-83
2020/12/24 00:22:31;;;;;;;18.97;16.43;;;7.10;99.90;;;;;;4943090;29;20472;-83
2020/12/24 00:24:58;;;;;;;15.87;13.63;;;7.10;99.90;;;;;;4957132;29;20480;-83
2020/12/24 00:27:25;;;;;;;15.47;13.10;;;7.10;99.90;;;;;;4925573;29;20566;-83
2020/12/24 00:29:53;;;;;;;16.43;14.33;;;7.10;99.90;;;;;;4928144;29;20450;-83
2020/12/24 00:32:21;;;;;;;17.00;13.97;;;7.10;99.90;;;;;;4944722;29;20510;-83
2020/12/24 00:34:48;;;;;;;19.50;14.80;;;7.10;99.90;;;;;;4943833;29;20469;-83
2020/12/24 00:37:15;;;;;;;17.17;13.60;;;7.10;99.90;;;;;;4943897;29;20479;-83
2020/12/24 00:39:42;;;;;;;15.90;13.43;;;7.10;99.90;;;;;;4943147;29;20491;-83
2020/12/24 00:42:09;;;;;;;14.83;12.40;;;7.20;99.90;;;;;;4943331;29;20537;-83
2020/12/24 00:44:37;;;;;;;16.17;13.57;;;7.10;99.90;;;;;;4943740;29;20483;-83
2020/12/24 00:47:05;;;;;;;18.17;14.53;;;7.20;99.90;;;;;;4928864;29;20505;-83
2020/12/24 00:49:32;;;;;;;18.10;14.90;;;7.10;99.90;;;;;;4941033;29;20480;-83
2020/12/24 00:51:59;;;;;;;16.17;13.37;;;7.10;99.90;;;;;;4940370;29;20460;-83
2020/12/24 00:54:27;;;;;;;15.50;12.80;;;7.10;99.90;;;;;;4941028;29;20458;-83
2020/12/24 00:56:54;;;;;;;15.20;13.03;;;7.20;99.90;;;;;;4940877;29;20472;-83
2020/12/24 00:59:24;;;;;;;16.30;13.50;;;7.10;99.90;;;;;;4944775;29;20905;-83
2020/12/24 01:01:51;;;;;;;13.93;12.30;;;7.10;99.90;;;;;;4943975;29;20495;-83
2020/12/24 01:04:20;;;;;;;15.48;13.27;;;7.10;99.90;;;;;;4941801;29;20554;-83
2020/12/24 01:06:47;;;;;;;14.57;12.17;;;7.10;99.90;;;;;;4924926;29;20210;-83
2020/12/24 01:09:14;;;;;;;15.50;12.40;;;7.10;99.90;;;;;;4940281;29;20483;-83
2020/12/24 01:11:41;;;;;;;13.60;11.23;;;7.10;99.90;;;;;;4942555;29;20958;-83
2020/12/24 01:14:09;;;;;;;13.53;12.13;;;7.10;99.90;;;;;;4944588;29;21035;-83
2020/12/24 01:16:37;;;;;;;13.60;11.40;;;7.10;99.90;;;;;;4956212;29;20458;-83
2020/12/24 01:19:04;;;;;;;14.40;12.00;;;7.00;99.90;;;;;;4940764;29;20574;-83
2020/12/24 01:21:32;;;;;;;13.33;11.30;;;7.10;99.90;;;;;;4940191;29;20478;-82
2020/12/24 01:23:59;;;;;;;11.90;10.37;;;7.00;99.90;;;;;;4940460;29;20455;-83
2020/12/24 01:26:26;;;;;;;12.93;10.37;;;7.00;99.90;;;;;;4956307;29;20555;-83
2020/12/24 01:28:53;;;;;;;11.90;10.47;;;7.00;99.90;;;;;;4957808;29;20515;-83
2020/12/24 01:31:21;;;;;;;10.17;9.17;;;7.00;99.90;;;;;;4939761;29;20682;-83
2020/12/24 01:33:48;;;;;;;7.77;6.97;;;7.00;99.90;;;;;;4923915;29;20465;-83
2020/12/24 01:36:21;;;;;;;9.30;8.00;;;7.00;99.90;;;;;;4924365;29;20459;-83
2020/12/24 01:38:49;;;;;;;9.13;8.10;;;7.00;99.90;;;;;;4924394;29;20887;-83
2020/12/24 01:41:17;;;;;;;7.83;7.03;;;7.00;99.90;;;;;;4956347;29;20535;-83
2020/12/24 01:43:44;;;;;;;7.73;6.93;;;7.00;99.90;;;;;;4924604;29;20447;-83
2020/12/24 01:46:11;;;;;;;7.03;6.33;;;7.00;99.90;;;;;;4963795;28;20483;-82
2020/12/24 01:48:38;;;;;;;6.90;6.30;;;7.00;99.90;;;;;;4942798;29;20482;-83
2020/12/24 01:51:06;;;;;;;7.57;6.87;;;7.00;99.90;;;;;;4940875;29;20487;-83
2020/12/24 01:53:34;;;;;;;7.03;6.33;;;6.90;99.90;;;;;;4959025;29;20457;-83
2020/12/24 01:56:02;;;;;;;6.80;6.07;;;6.90;99.90;;;;;;4960928;29;20458;-83
2020/12/24 01:58:30;;;;;;;6.03;5.43;;;6.90;99.90;;;;;;4923984;29;20565;-84
2020/12/24 02:00:57;;;;;;;5.83;5.30;;;6.90;99.90;;;;;;4933101;28;20486;-83
2020/12/24 02:03:24;;;;;;;6.57;5.20;;;6.80;99.90;;;;;;4940237;29;20459;-83
2020/12/24 02:05:52;;;;;;;5.43;4.60;;;6.80;99.90;;;;;;4942167;29;20483;-83
2020/12/24 02:08:19;;;;;;;4.40;3.63;;;6.80;99.90;;;;;;4942558;29;20502;-83
2020/12/24 02:10:46;;;;;;;4.33;3.83;;;6.70;99.90;;;;;;4942232;29;20458;-83
2020/12/24 02:13:14;;;;;;;3.80;3.40;;;6.60;99.90;;;;;;4941692;29;20467;-83
2020/12/24 02:15:42;;;;;;;3.90;3.50;;;6.60;99.90;;;;;;4940684;29;20497;-83
2020/12/24 02:18:09;;;;;;;4.20;3.80;;;6.50;99.90;;;;;;4940806;29;20506;-85
2020/12/24 02:20:43;;;;;;;4.17;3.60;;;6.50;99.90;;;;;;4958227;28;20430;-84
2020/12/24 02:23:11;;;;;;;4.40;3.97;;;6.50;99.90;;;;;;4943440;29;20503;-84
2020/12/24 02:25:40;;;;;;;4.73;3.23;;;6.50;99.90;;;;;;4943798;29;20454;-83
2020/12/24 02:28:08;;;;;;;4.33;3.50;;;6.40;99.90;;;;;;4943808;28;20479;-84
2020/12/24 02:30:36;;;;;;;5.85;4.38;;;6.40;99.90;;;;;;4973184;28;20507;-83
2020/12/24 02:33:03;;;;;;;7.47;5.30;;;6.50;99.90;;;;;;4945049;29;20671;-83
2020/12/24 02:35:30;;;;;;;9.87;4.77;;;6.50;99.90;;;;;;4928650;29;20447;-83
2020/12/24 02:37:58;;;;;;;9.07;5.70;;;6.50;99.90;;;;;;4944181;29;20517;-83
2020/12/24 02:40:26;;;;;;;11.97;6.80;;;6.50;99.90;;;;;;4944385;29;20444;-83
2020/12/24 02:42:53;;;;;;;10.83;6.13;;;6.50;99.90;;;;;;4944620;29;20459;-83
2020/12/24 02:45:21;;;;;;;7.57;5.70;;;6.50;99.90;;;;;;4944487;29;20484;-83
2020/12/24 02:47:48;;;;;;;10.50;7.47;;;6.50;99.90;;;;;;4944135;29;20912;-83
2020/12/24 02:50:15;;;;;;;4.20;2.90;;;6.40;99.90;;;;;;4947565;29;20479;-83
2020/12/24 02:52:42;;;;;;;2.90;2.60;;;6.40;99.90;;;;;;4946776;29;20450;-83
2020/12/24 02:55:10;;;;;;;1.97;1.70;;;6.30;99.90;;;;;;4947191;29;20468;-83
2020/12/24 02:57:38;;;;;;;3.50;2.77;;;6.30;99.90;;;;;;4947101;29;20516;-83
2020/12/24 03:00:07;;;;;;;3.07;2.40;;;6.30;99.90;;;;;;4946212;29;20493;-83
2020/12/24 03:02:34;;;;;;;2.50;2.03;;;6.30;99.90;;;;;;4942832;29;20909;-83
2020/12/24 03:05:02;;;;;;;4.50;2.00;;;6.30;99.90;;;;;;4945106;29;20725;-83
2020/12/24 03:07:29;;;;;;;2.27;1.80;;;6.20;99.90;;;;;;4937529;29;20482;-83
2020/12/24 03:09:56;;;;;;;2.10;1.70;;;6.20;99.90;;;;;;4945253;29;20531;-83
2020/12/24 03:12:25;;;;;;;2.57;1.90;;;6.20;99.90;;;;;;4927889;29;20456;-83
2020/12/24 03:14:53;;;;;;;2.93;2.43;;;6.10;99.90;;;;;;4931151;29;20471;-83
2020/12/24 03:17:20;;;;;;;2.93;1.93;;;6.10;99.90;;;;;;4968408;28;20503;-83
2020/12/24 03:19:48;;;;;;;2.90;2.60;;;6.00;99.90;;;;;;4946399;29;20826;-83
2020/12/24 03:22:15;;;;;;;2.30;1.50;;;6.00;99.90;;;;;;4947710;29;20883;-83
2020/12/24 03:24:43;;;;;;;2.23;1.50;;;6.00;99.90;;;;;;4979545;28;20509;-83
2020/12/24 03:27:10;;;;;;;3.03;1.53;;;5.90;99.90;;;;;;4946141;29;20460;-84
2020/12/24 03:29:38;;;;;;;1.80;1.30;;;5.90;99.90;;;;;;4945776;29;20574;-83
2020/12/24 03:32:05;;;;;;;1.70;1.40;;;5.70;99.90;;;;;;4945533;29;20493;-83
2020/12/24 03:34:32;;;;;;;1.70;1.40;;;5.80;99.90;;;;;;4943176;29;20465;-84
2020/12/24 03:37:00;;;;;;;1.70;1.13;;;5.70;99.90;;;;;;4926219;29;20452;-84
2020/12/24 03:39:27;;;;;;;1.40;0.90;;;5.70;99.90;;;;;;4941728;29;20479;-83
2020/12/24 03:41:54;;;;;;;2.50;1.03;;;5.60;99.90;;;;;;4941896;29;20498;-83
2020/12/24 03:44:21;;;;;;;1.40;0.80;;;5.60;99.90;;;;;;4941294;29;20989;-83
2020/12/24 03:46:49;;;;;;;1.00;0.60;;;5.50;99.90;;;;;;4945031;29;20530;-84
2020/12/24 03:49:17;;;;;;;1.10;0.73;;;5.50;99.90;;;;;;4944956;29;20483;-84
2020/12/24 03:51:44;;;;;;;2.90;0.97;;;5.40;99.90;;;;;;4945963;29;21008;-83
2020/12/24 03:54:11;;;;;;;1.30;0.60;;;5.30;99.90;;;;;;4945624;29;20545;-83
2020/12/24 03:56:38;;;;;;;1.20;0.60;;;5.30;99.90;;;;;;4977446;28;20454;-83
2020/12/24 03:59:05;;;;;;;1.00;0.60;;;5.30;99.90;;;;;;4945453;29;20466;-83
2020/12/24 04:01:37;;;;;;;1.20;0.60;;;5.20;99.90;;;;;;4943525;29;20455;-83
2020/12/24 04:04:05;;;;;;;1.10;0.50;;;5.20;99.90;;;;;;4945382;29;20908;-83
2020/12/24 04:06:32;;;;;;;1.40;0.60;;;5.20;99.90;;;;;;4941211;29;20466;-83
2020/12/24 04:08:59;;;;;;;1.10;0.60;;;5.10;99.90;;;;;;4958098;29;20479;-83
2020/12/24 04:11:26;;;;;;;1.30;0.60;;;5.10;99.90;;;;;;4926151;29;20451;-83
2020/12/24 04:13:54;;;;;;;2.00;0.83;;;5.10;99.90;;;;;;4931809;29;20458;-83
2020/12/24 04:16:21;;;;;;;2.10;0.70;;;5.00;99.90;;;;;;4929468;29;20487;-83
2020/12/24 04:18:49;;;;;;;1.00;0.53;;;5.00;99.90;;;;;;4953902;28;20486;-83
2020/12/24 04:21:17;;;;;;;0.97;0.50;;;5.00;99.90;;;;;;4940988;29;20468;-83
2020/12/24 04:23:44;;;;;;;1.00;0.50;;;5.00;99.90;;;;;;4942748;29;20443;-83
2020/12/24 04:26:18;;;;;;;1.40;0.60;;;5.00;99.90;;;;;;4941312;29;20486;-83
2020/12/24 04:28:46;;;;;;;1.30;0.68;;;4.90;99.90;;;;;;4940024;29;20473;-83
2020/12/24 04:31:13;;;;;;;1.20;0.80;;;5.00;99.90;;;;;;4976094;28;20222;-83
2020/12/24 04:33:41;;;;;;;1.13;0.63;;;5.00;99.90;;;;;;4944162;29;20569;-83
2020/12/24 04:36:09;;;;;;;1.23;0.80;;;5.00;99.90;;;;;;4944743;29;20513;-83
2020/12/24 04:38:37;;;;;;;1.50;0.83;;;5.00;99.90;;;;;;4944048;29;20470;-83
2020/12/24 04:41:04;;;;;;;1.80;1.53;;;5.00;99.90;;;;;;4976503;28;21044;-83
2020/12/24 04:43:32;;;;;;;3.13;1.67;;;5.00;99.90;;;;;;4976901;28;20469;-83
2020/12/24 04:46:00;;;;;;;3.17;2.17;;;5.00;99.90;;;;;;4944206;29;20855;-83
2020/12/24 04:48:28;;;;;;;3.13;2.70;;;5.00;99.90;;;;;;4943912;29;20478;-83
2020/12/24 04:51:08;;;;;;;3.83;2.70;;;5.00;99.90;;;;;;4961291;28;20470;-83
2020/12/24 04:53:38;;;;;;;3.97;3.33;;;5.00;99.90;;;;;;4976536;28;20447;-83
2020/12/24 04:56:07;;;;;;;3.83;3.43;;;5.00;99.90;;;;;;4944443;29;20474;-83
2020/12/24 04:58:35;;;;;;;4.80;3.80;;;5.00;99.90;;;;;;4944081;29;20479;-83
2020/12/24 05:01:02;;;;;;;4.13;3.73;;;4.90;99.90;;;;;;4943934;29;20446;-84
2020/12/24 05:03:30;;;;;;;4.57;3.60;;;5.00;99.90;;;;;;4941350;29;21001;-83
2020/12/24 05:05:58;;;;;;;5.80;3.20;;;4.90;99.90;;;;;;4925909;29;20451;-83
2020/12/24 05:08:26;;;;;;;3.30;2.47;;;4.90;99.90;;;;;;4926514;29;20483;-83
2020/12/24 05:11:05;;;;;;;3.17;2.30;;;4.90;99.90;;;;;;4927002;29;20447;-86
2020/12/24 05:13:33;;;;;;;3.23;2.10;;;4.90;99.90;;;;;;4926552;29;20451;-83
2020/12/24 05:16:14;;;;;;;4.57;2.10;;;4.80;99.90;;;;;;4963474;28;20455;-83
2020/12/24 05:18:41;;;;;;;3.57;2.20;;;4.80;99.90;;;;;;4942094;29;20466;-83
2020/12/24 05:21:09;;;;;;;2.30;1.83;;;4.80;99.90;;;;;;4940799;29;20868;-83
2020/12/24 05:23:36;;;;;;;4.80;1.77;;;4.80;99.90;;;;;;4940625;29;20916;-83
2020/12/24 05:26:18;;;;;;;3.23;1.50;;;4.80;99.90;;;;;;4942553;29;20509;-83
2020/12/24 05:28:46;;;;;;;2.83;1.73;;;4.60;99.90;;;;;;4940618;29;20475;-83
2020/12/24 05:31:31;;;;;;;2.37;1.80;;;4.70;99.90;;;;;;4941566;29;20549;-83
2020/12/24 05:33:59;;;;;;;2.03;1.57;;;4.60;99.90;;;;;;4957164;29;20455;-83
2020/12/24 05:36:26;;;;;;;2.57;1.80;;;4.60;99.90;;;;;;4941106;29;20463;-83
2020/12/24 05:38:54;;;;;;;3.50;2.53;;;4.60;99.90;;;;;;4925895;29;20813;-82
2020/12/24 05:41:33;;;;;;;3.40;2.37;;;4.60;99.90;;;;;;4940752;29;20872;-83
2020/12/24 05:44:02;;;;;;;3.60;2.60;;;4.60;99.90;;;;;;4942578;29;20475;-83
2020/12/24 05:46:39;;;;;;;4.20;2.40;;;4.50;99.90;;;;;;4944548;29;20462;-83
2020/12/24 05:49:14;;;;;;;3.50;2.83;;;4.50;99.90;;;;;;4977022;28;20537;-83
2020/12/24 05:51:57;;;;;;;3.40;2.67;;;4.50;99.90;;;;;;4943746;29;20479;-82
2020/12/24 05:54:25;;;;;;;3.87;2.53;;;4.70;99.90;;;;;;4948064;29;20514;-83
2020/12/24 05:56:54;;;;;;;3.43;2.70;;;4.60;99.90;;;;;;4961870;29;20446;-82
2020/12/24 05:59:24;;;;;;;3.70;2.17;;;4.60;99.90;;;;;;4946460;29;20462;-83
2020/12/24 06:02:00;;;;;;;4.00;2.43;;;4.70;99.90;;;;;;4950623;29;20199;-82
2020/12/24 06:04:47;;;;;;;2.30;1.90;;;4.70;99.90;;;;;;4984526;28;20454;-83
2020/12/24 06:07:25;;;;;;;3.60;1.80;;;4.60;99.90;;;;;;4947319;29;20506;-83
2020/12/24 06:09:52;;;;;;;5.23;2.40;;;4.60;99.90;;;;;;4929008;29;20507;-82
2020/12/24 06:12:22;;;;;;;3.03;1.93;;;4.60;99.90;;;;;;4929892;29;20494;-83
2020/12/24 06:14:50;;;;;;;5.50;2.30;;;4.60;99.90;;;;;;4943670;29;20511;-81
2020/12/24 06:17:18;;;;;;;4.60;2.50;;;4.50;99.90;;;;;;4946619;29;20452;-82
2020/12/24 06:19:47;;;;;;;4.07;3.00;;;4.50;99.90;;;;;;4978120;28;20449;-82
2020/12/24 06:22:15;;;;;;;3.87;2.50;;;4.50;99.90;;;;;;4946350;29;21024;-82
2020/12/24 06:24:45;;;;;;;4.30;2.73;;;4.50;99.90;;;;;;4950352;28;20477;-81
2020/12/24 06:27:24;;;;;;;3.47;3.10;;;4.50;99.90;;;;;;4964004;28;20474;-83
2020/12/24 06:29:53;;;;;;;4.27;3.23;;;4.50;99.90;;;;;;4944115;29;20469;-82
2020/12/24 06:32:22;;;;;;;3.80;3.03;;;4.50;99.90;;;;;;4945918;29;20455;-83
2020/12/24 06:34:50;;;;;;;4.57;3.33;;;4.40;99.90;;;;;;4946847;29;20545;-83
2020/12/24 06:37:18;;;;;;;3.83;2.93;;;4.40;99.90;;;;;;4978735;28;20557;-82
2020/12/24 06:39:48;;;;;;;3.83;2.90;;;4.50;99.90;;;;;;4944747;29;20513;-82
2020/12/24 06:42:39;;;;;;;4.63;2.90;;;4.40;99.90;;;;;;4945364;29;20482;-82
2020/12/24 06:45:08;;;;;;;4.20;2.33;;;4.50;99.90;;;;;;4974339;28;20459;-81
2020/12/24 06:47:35;;;;;;;3.13;2.30;;;4.40;99.90;;;;;;4955175;29;20502;-83
2020/12/24 06:50:36;;;;;;;3.77;1.70;;;4.40;99.90;;;;;;4942197;29;21077;-82
2020/12/24 06:53:20;;;;;;;2.20;1.30;;;4.40;99.90;;;;;;4942564;29;20450;-82
2020/12/24 06:56:19;;;;;;;3.00;1.10;;;4.40;99.90;;;;;;4976921;28;20549;-83
2020/12/24 06:58:49;;;;;;;1.73;0.90;;;4.40;99.90;;;;;;4962175;29;20514;-82
2020/12/24 07:01:17;;;;;;;2.30;1.77;;;4.40;99.90;;;;;;4941995;29;20463;-83
2020/12/24 07:03:45;;;;;;;2.57;1.10;;;4.40;99.90;;;;;;4926107;29;20707;-82
2020/12/24 07:06:12;;;;;;;2.47;1.30;;;4.40;99.90;;;;;;4943367;29;20468;-82
2020/12/24 07:08:47;;;;;;;2.33;0.93;;;4.40;99.90;;;;;;4925930;29;20919;-83
2020/12/24 07:11:40;;;;;;;2.43;1.00;;;4.40;99.90;;;;;;4935565;29;20459;-83
2020/12/24 07:14:24;;;;;;;2.67;1.70;;;4.40;99.90;;;;;;4941881;29;20521;-82
2020/12/24 07:16:52;;;;;;;2.63;1.50;;;4.40;99.90;;;;;;4943367;29;20455;-82
2020/12/24 07:19:19;;;;;;;3.83;2.13;;;4.40;99.90;;;;;;4943501;29;20532;-83
2020/12/24 07:21:48;;;;;;;2.30;1.90;;;4.40;99.90;;;;;;4942251;29;20483;-82
2020/12/24 07:24:17;;;;;;;4.60;2.23;;;4.40;99.90;;;;;;4941856;29;20550;-82
2020/12/24 07:26:44;;;;;;;2.63;2.00;;;4.40;99.90;;;;;;4943291;29;20435;-82
2020/12/24 07:29:14;;;;;;;4.17;2.20;;;4.40;99.90;;;;;;4944733;29;20471;-82
2020/12/24 07:31:42;;;;;;;5.13;2.30;;;4.40;99.90;;;;;;4944338;29;20509;-82
2020/12/24 07:34:10;;;;;;;6.30;2.60;;;4.50;99.90;;;;;;4961594;29;20446;-82
2020/12/24 07:36:37;;;;;;;2.53;2.13;;;4.40;99.90;;;;;;4944661;29;20461;-83
2020/12/24 07:39:09;;;;;;;3.10;2.40;;;4.40;99.90;;;;;;4944539;29;20478;-83
2020/12/24 07:41:40;;;;;;;5.10;2.60;;;4.40;99.90;;;;;;4950494;29;20487;-82
2020/12/24 07:44:11;;;;;;;4.30;2.90;;;4.40;99.90;;;;;;4958188;29;20439;-83
2020/12/24 07:46:39;;;;;;;3.93;2.57;;;4.40;99.90;;;;;;4960040;29;20546;-82
2020/12/24 07:49:07;;;;;;;3.87;3.00;;;4.40;99.90;;;;;;4944675;29;20474;-82
2020/12/24 07:51:34;;;;;;;8.30;3.00;;;4.50;99.90;;;;;;4943867;29;20545;-82
2020/12/24 07:54:06;;;;;;;3.43;2.70;;;4.40;99.90;;;;;;4943830;29;20450;-81
2020/12/24 07:56:34;;;;;;;5.90;2.80;;;4.40;99.90;;;;;;4944182;29;20535;-82
2020/12/24 07:59:02;;;;;;;3.97;2.63;;;4.40;99.90;;;;;;4940825;29;20487;-82
2020/12/24 08:01:30;;;;;;;6.78;2.80;;;4.40;99.90;;;;;;4925244;29;20988;-82
2020/12/24 08:04:01;;;;;;;5.53;2.80;;;4.60;99.90;;;;;;4936224;29;20201;-82
2020/12/24 08:06:29;;;;;;;4.50;3.30;;;4.50;99.90;;;;;;4940848;29;20561;-82
2020/12/24 08:09:11;;;;;;;4.00;2.43;;;4.50;99.90;;;;;;4963936;28;20509;-82
2020/12/24 08:11:39;;;;;;;4.30;2.90;;;4.50;99.90;;;;;;4939659;29;20504;-82
2020/12/24 08:14:06;;;;;;;7.00;3.30;;;4.60;99.90;;;;;;4925451;29;20203;-82
2020/12/24 08:16:36;;;;;;;5.73;3.23;;;4.60;99.90;;;;;;4958407;29;20455;-81
2020/12/24 08:19:09;;;;;;;5.37;3.03;;;4.60;99.90;;;;;;4941767;29;20491;-82
2020/12/24 08:21:46;;;;;;;4.70;3.13;;;4.60;99.90;;;;;;4952915;29;20443;-82
2020/12/24 08:24:14;;;;;;;5.13;2.80;;;4.50;99.90;;;;;;4975357;28;20442;-82
2020/12/24 08:26:42;;;;;;;6.67;3.33;;;4.60;99.90;;;;;;4942991;29;20562;-81
2020/12/24 08:29:09;;;;;;;4.70;2.83;;;4.50;99.90;;;;;;4942414;29;20474;-82
2020/12/24 08:31:40;;;;;;;3.70;2.80;;;4.60;99.90;;;;;;4938980;29;20519;-82
2020/12/24 08:34:09;;;;;;;4.40;3.10;;;4.50;99.90;;;;;;4924315;29;20456;-82
2020/12/24 08:36:43;;;;;;;6.33;4.77;;;4.60;99.90;;;;;;4942604;29;20545;-82
2020/12/24 08:39:12;;;;;;;11.33;3.60;;;4.60;99.90;;;;;;4941998;29;20834;-82
2020/12/24 08:41:41;;;;;;;6.37;4.37;;;4.60;99.90;;;;;;4973913;28;20938;-82
2020/12/24 08:44:09;;;;;;;6.60;3.43;;;4.60;99.90;;;;;;4938148;29;20570;-82
2020/12/24 08:46:37;;;;;;;7.33;4.40;;;4.60;99.90;;;;;;4938582;29;20970;-82
2020/12/24 08:49:21;;;;;;;6.73;3.90;;;4.60;99.90;;;;;;4940263;29;20499;-82
2020/12/24 08:51:50;;;;;;;5.13;3.90;;;4.60;99.90;;;;;;4935824;29;20528;-82
2020/12/24 08:54:18;;;;;;;4.63;3.63;;;4.60;99.90;;;;;;4942694;29;20462;-82
2020/12/24 08:56:47;;;;;;;6.43;3.50;;;4.60;99.90;;;;;;4941923;29;20458;-82
2020/12/24 08:59:14;;;;;;;6.17;3.73;;;4.70;99.90;;;;;;4942181;29;20565;-82
2020/12/24 09:01:43;;;;;;;5.53;3.93;;;4.70;99.90;;;;;;4939541;29;20876;-82
2020/12/24 09:04:12;;;;;;;5.60;3.80;;;4.70;99.90;;;;;;4940361;29;20522;-82
2020/12/24 09:06:39;;;;;;;7.50;4.00;;;4.70;99.90;;;;;;4973252;28;20457;-82
2020/12/24 09:09:08;;;;;;;6.47;5.07;;;4.70;99.90;;;;;;4950946;29;20542;-82
2020/12/24 09:11:35;;;;;;;7.50;4.03;;;4.70;99.90;;;;;;4944038;29;20466;-82
2020/12/24 09:14:04;;;;;;;6.50;3.97;;;4.80;99.90;;;;;;4972850;28;20489;-81
2020/12/24 09:16:32;;;;;;;11.90;5.57;;;4.80;99.90;;;;;;4964048;28;20538;-81
2020/12/24 09:19:04;;;;;;;7.30;4.90;;;4.80;99.90;;;;;;4955911;29;20463;-81
2020/12/24 09:21:32;;;;;;;9.87;5.17;;;4.90;99.90;;;;;;4938287;29;20832;-80
2020/12/24 09:24:11;;;;;;;10.13;5.90;;;4.90;99.90;;;;;;4924177;29;20931;-81
2020/12/24 09:26:43;;;;;;;8.80;5.90;;;4.90;99.90;;;;;;4923868;29;20475;-81
2020/12/24 09:29:10;;;;;;;8.50;6.77;;;4.90;99.90;;;;;;4923978;29;20586;-81
2020/12/24 09:31:38;;;;;;;8.17;7.37;;;4.90;99.90;;;;;;4924728;29;21047;-81
2020/12/24 09:34:05;;;;;;;9.23;6.30;;;4.90;99.90;;;;;;4924173;29;20613;-81
2020/12/24 09:36:32;;;;;;;7.63;6.83;;;5.00;99.90;;;;;;4924934;29;20563;-81
2020/12/24 09:39:00;;;;;;;9.07;8.00;;;5.00;99.90;;;;;;4927551;29;20487;-81
2020/12/24 09:41:28;;;;;;;11.27;9.70;;;5.00;99.90;;;;;;4936165;29;20476;-81
2020/12/24 09:43:55;;;;;;;9.03;8.13;;;5.00;99.90;;;;;;4944791;29;20505;-81
2020/12/24 09:46:24;;;;;;;8.60;7.17;;;5.00;99.90;;;;;;4944674;29;20485;-81
2020/12/24 09:48:52;;;;;;;10.53;9.13;;;5.00;99.90;;;;;;4945770;29;20479;-82
2020/12/24 09:51:19;;;;;;;10.90;9.77;;;5.10;99.90;;;;;;4946308;29;20522;-81
2020/12/24 09:53:46;;;;;;;10.30;9.27;;;5.10;99.90;;;;;;4945850;29;20450;-81
2020/12/24 09:56:18;;;;;;;11.20;8.73;;;5.10;99.90;;;;;;4963711;29;20502;-81
2020/12/24 09:58:46;;;;;;;10.00;8.87;;;5.10;99.90;;;;;;4966932;29;20462;-81
2020/12/24 10:01:16;;;;;;;12.67;10.47;;;5.20;99.90;;;;;;4943307;29;20451;-81
2020/12/24 10:03:49;;;;;;;10.40;9.40;;;5.20;99.90;;;;;;4942296;29;20454;-81
2020/12/24 10:06:16;;;;;;;10.00;8.60;;;5.20;99.90;;;;;;4941285;29;20463;-81
2020/12/24 10:08:43;;;;;;;12.83;8.73;;;5.20;99.90;;;;;;4942400;29;20545;-81
2020/12/24 10:11:12;;;;;;;9.03;7.97;;;5.30;99.90;;;;;;4942877;29;20964;-81
2020/12/24 10:13:39;;;;;;;11.70;8.03;;;5.30;99.90;;;;;;4941971;29;20449;-81
2020/12/24 10:16:07;;;;;;;7.77;6.97;;;5.30;99.90;;;;;;4941891;29;20446;-81
2020/12/24 10:18:35;;;;;;;9.50;7.07;;;5.30;99.90;;;;;;4958391;29;20502;-81
2020/12/24 10:21:03;;;;;;;7.80;7.03;;;5.30;99.90;;;;;;4972917;28;20451;-81
2020/12/24 10:23:31;;;;;;;9.07;7.00;;;5.40;99.90;;;;;;4975537;28;20447;-82
2020/12/24 10:25:58;;;;;;;9.37;7.13;;;5.40;99.90;;;;;;4928209;29;20568;-82
2020/12/24 10:28:25;;;;;;;8.52;7.57;;;5.40;99.90;;;;;;4938709;29;20564;-82
2020/12/24 10:30:53;;;;;;;8.20;7.50;;;5.50;99.90;;;;;;4938641;29;20314;-82
2020/12/24 10:33:21;;;;;;;8.10;7.30;;;5.50;99.90;;;;;;4938198;29;20459;-82
2020/12/24 10:35:48;;;;;;;8.93;8.23;;;5.50;99.90;;;;;;4938075;29;20757;-82
2020/12/24 10:38:16;;;;;;;10.65;8.48;;;5.50;99.90;;;;;;4953531;29;20464;-82
2020/12/24 10:40:43;;;;;;;9.03;8.13;;;5.60;99.90;;;;;;4940205;29;20188;-82
2020/12/24 10:43:10;;;;;;;8.73;8.00;;;5.60;99.90;;;;;;4923253;29;20473;-82
2020/12/24 10:45:38;;;;;;;9.87;8.87;;;5.60;99.90;;;;;;4940746;29;20451;-82
2020/12/24 10:48:05;;;;;;;11.00;9.23;;;5.50;99.90;;;;;;4936798;29;20521;-82
2020/12/24 10:50:33;;;;;;;10.97;9.87;;;5.50;99.90;;;;;;4940936;29;20575;-82
2020/12/24 10:53:00;;;;;;;8.47;7.57;;;5.50;99.90;;;;;;4926973;29;20444;-82
2020/12/24 10:55:28;;;;;;;11.07;7.83;;;5.60;99.90;;;;;;4927324;29;20467;-82
2020/12/24 10:57:55;;;;;;;8.10;7.30;;;5.50;99.90;;;;;;4946265;29;20506;-82
2020/12/24 11:00:22;;;;;;;8.73;6.70;;;5.50;99.90;;;;;;4948124;29;20431;-82
2020/12/24 11:02:49;;;;;;;9.63;7.77;;;5.60;99.90;;;;;;4957303;29;20482;-82
2020/12/24 11:05:17;;;;;;;9.17;7.07;;;5.60;99.90;;;;;;4931502;29;20459;-82
2020/12/24 11:07:45;;;;;;;7.70;6.93;;;5.60;99.90;;;;;;4929055;29;20479;-82
2020/12/24 11:10:12;;;;;;;8.13;7.33;;;5.60;99.90;;;;;;4928376;29;20530;-82
2020/12/24 11:12:40;;;;;;;8.70;7.90;;;5.60;99.90;;;;;;4930482;29;20451;-82
2020/12/24 11:15:07;;;;;;;8.33;7.53;;;5.60;99.90;;;;;;4951934;29;20455;-82
2020/12/24 11:17:35;;;;;;;8.60;6.60;;;5.60;99.90;;;;;;4945041;29;20475;-82
2020/12/24 11:20:04;;;;;;;8.40;7.03;;;5.60;99.90;;;;;;4945441;29;20454;-82
2020/12/24 11:22:31;;;;;;;8.43;7.27;;;5.70;99.90;;;;;;4945231;29;20451;-82
2020/12/24 11:24:59;;;;;;;7.10;6.40;;;5.70;99.90;;;;;;4929876;29;20436;-82
2020/12/24 11:27:27;;;;;;;7.47;6.43;;;5.70;99.90;;;;;;4958034;29;20483;-82
2020/12/24 11:29:58;;;;;;;8.30;6.20;;;5.70;99.90;;;;;;4947824;29;20493;-82
2020/12/24 11:32:30;;;;;;;7.40;6.30;;;5.70;99.90;;;;;;4949382;29;20464;-82
2020/12/24 11:34:59;;;;;;;6.43;5.73;;;5.80;99.90;;;;;;4948766;29;20490;-82
2020/12/24 11:37:26;;;;;;;6.93;5.43;;;5.80;99.90;;;;;;4947232;29;20449;-82
2020/12/24 11:39:53;;;;;;;10.37;5.00;;;5.80;99.90;;;;;;4976648;28;20542;-82
2020/12/24 11:42:22;;;;;;;5.33;4.73;;;5.80;99.90;;;;;;4944812;29;20500;-82
2020/12/24 11:44:50;;;;;;;7.20;4.57;;;5.90;99.90;;;;;;4943906;29;20454;-82
2020/12/24 11:47:18;;;;;;;6.97;4.43;;;5.90;99.90;;;;;;4976264;28;20509;-82
2020/12/24 11:49:46;;;;;;;6.47;4.60;;;5.90;99.90;;;;;;4939506;29;20598;-82
2020/12/24 11:52:13;;;;;;;6.00;4.07;;;5.90;99.90;;;;;;4923614;29;20460;-83
2020/12/24 11:54:41;;;;;;;10.90;6.07;;;5.90;99.90;;;;;;4924578;29;20444;-82
2020/12/24 11:57:09;;;;;;;7.13;4.40;;;5.90;99.90;;;;;;4924986;29;20542;-82
2020/12/24 11:59:38;;;;;;;6.93;4.67;;;6.00;99.90;;;;;;4957279;29;20466;-82
2020/12/24 12:02:05;;;;;;;7.03;5.07;;;6.00;99.90;;;;;;4937420;29;20515;-81
2020/12/24 12:04:32;;;;;;;6.13;4.43;;;6.00;99.90;;;;;;4957096;29;21014;-81
2020/12/24 12:06:59;;;;;;;6.93;4.70;;;6.00;99.90;;;;;;4942473;29;20448;-82
2020/12/24 12:09:27;;;;;;;7.50;4.70;;;6.10;99.90;;;;;;4934989;29;20483;-82
2020/12/24 12:11:54;;;;;;;7.33;4.57;;;6.10;99.90;;;;;;4971492;28;20506;-82
2020/12/24 12:14:21;;;;;;;7.83;4.30;;;6.10;99.90;;;;;;4944964;29;20978;-82
2020/12/24 12:16:49;;;;;;;5.97;3.93;;;6.10;99.90;;;;;;4940939;29;20453;-82
2020/12/24 12:19:17;;;;;;;6.03;4.40;;;6.10;99.90;;;;;;4925747;29;20472;-81
2020/12/24 12:21:45;;;;;;;5.87;4.00;;;6.20;99.90;;;;;;4923972;29;20483;-81
2020/12/24 12:24:12;;;;;;;6.30;3.70;;;6.20;99.90;;;;;;4923342;29;20512;-82
2020/12/24 12:26:40;;;;;;;5.03;3.20;;;6.30;99.90;;;;;;4924314;29;20211;-82
2020/12/24 12:29:09;;;;;;;6.50;3.60;;;6.30;99.90;;;;;;4924822;29;20463;-82
2020/12/24 12:31:36;;;;;;;7.32;3.63;;;6.20;99.90;;;;;;4951686;29;20890;-82
2020/12/24 12:34:05;;;;;;;7.13;2.97;;;6.30;99.90;;;;;;4947719;29;20253;-82
2020/12/24 12:36:32;;;;;;;4.50;3.00;;;6.30;99.90;;;;;;4956638;29;20448;-82
2020/12/24 12:38:59;;;;;;;4.47;3.10;;;6.30;99.90;;;;;;4925232;29;20463;-83
2020/12/24 12:41:26;;;;;;;7.37;3.00;;;6.30;99.90;;;;;;4942047;29;20427;-83
2020/12/24 12:43:55;;;;;;;6.20;2.80;;;6.30;99.90;;;;;;4940290;29;20471;-83
2020/12/24 12:46:25;;;;;;;7.50;4.47;;;6.30;99.90;;;;;;4940463;29;20462;-82
2020/12/24 12:48:53;;;;;;;6.20;2.93;;;6.30;99.90;;;;;;4940213;29;20511;-83
2020/12/24 12:51:21;;;;;;;5.37;3.07;;;6.30;99.90;;;;;;4941487;29;20468;-82
2020/12/24 12:53:48;;;;;;;5.30;3.37;;;6.30;99.90;;;;;;4940910;29;20475;-82
2020/12/24 12:56:31;;;;;;;5.20;2.80;;;6.40;99.90;;;;;;4957464;29;20480;-82
2020/12/24 12:58:58;;;;;;;5.83;2.77;;;6.30;99.90;;;;;;4924901;29;20554;-83
2020/12/24 13:01:26;;;;;;;4.30;2.57;;;6.40;99.90;;;;;;4925620;29;20462;-82